Řízení letového provozu České republiky
Letiste: LKNA Aktualizace: 11.12.2019 05:00:26  UTC
 METAR LKNA 11.12. 05:00 ...
METAR LKNA 110500Z 12004KT CAVOK M04/M05 Q1020 NOSIG RMK BLU BLU=
 TAF LKNA 10.12. 23:00 ...
TAF LKNA 102300Z 1100/1200 31008KT CAVOK      TEMPO 1100/1109 3000 BR NSC      PROB30 TEMPO 1102/1108 0500 FZFG BKN002      BECMG 1102/1104 16004KT=